createdAt,value
2023-03-08T00:00:43.863Z,98832.72
2023-03-08T00:03:16.671Z,98820.97
2023-03-08T00:05:45.768Z,98841.19
2023-03-08T00:08:14.479Z,98834.31
2023-03-08T00:10:48.476Z,98846.00
2023-03-08T00:13:18.698Z,98836.66
2023-03-08T00:15:48.032Z,98845.91
2023-03-08T00:18:20.141Z,98839.13
2023-03-08T00:20:48.039Z,98845.13
2023-03-08T00:23:17.208Z,98822.03
2023-03-08T00:25:45.737Z,98833.31
2023-03-08T00:28:14.162Z,98844.25
2023-03-08T00:30:44.552Z,98837.69
2023-03-08T00:33:12.859Z,98846.47
2023-03-08T00:35:44.666Z,98852.38
2023-03-08T00:38:12.481Z,98802.88
2023-03-08T00:40:41.590Z,98859.97
2023-03-08T00:43:09.509Z,98852.72
2023-03-08T00:45:38.030Z,98853.75
2023-03-08T00:48:09.041Z,98860.38
2023-03-08T00:50:39.819Z,98839.81
2023-03-08T00:53:10.618Z,98796.13
2023-03-08T00:55:40.561Z,98858.50
2023-03-08T00:58:09.640Z,98838.94
2023-03-08T01:00:49.022Z,98824.72
2023-03-08T01:03:18.076Z,98838.00
2023-03-08T01:05:50.317Z,98847.56
2023-03-08T01:08:22.112Z,98838.69
2023-03-08T01:10:51.361Z,98835.50
2023-03-08T01:13:20.821Z,98844.66
2023-03-08T01:15:49.648Z,98833.88
2023-03-08T01:18:20.147Z,98830.06
2023-03-08T01:20:56.678Z,98824.31
2023-03-08T01:23:27.001Z,98817.03
2023-03-08T01:26:03.244Z,98826.94
2023-03-08T01:28:32.328Z,98829.78
2023-03-08T01:31:03.257Z,98813.47
2023-03-08T01:33:31.666Z,98823.13
2023-03-08T01:36:00.943Z,98800.19
2023-03-08T01:38:36.307Z,98819.63
2023-03-08T01:41:19.177Z,98818.47
2023-03-08T01:43:47.534Z,98809.47
2023-03-08T01:46:26.474Z,98796.44
2023-03-08T01:49:04.945Z,98796.41
2023-03-08T01:51:39.773Z,98800.56
2023-03-08T01:54:15.610Z,98790.53
2023-03-08T01:56:47.276Z,98755.53
2023-03-08T01:59:15.822Z,98796.66
2023-03-08T02:01:44.237Z,98781.97
2023-03-08T02:04:13.242Z,98787.50
2023-03-08T02:06:41.948Z,98766.81
2023-03-08T02:09:11.236Z,98728.16
2023-03-08T02:11:42.101Z,98775.00
2023-03-08T02:14:11.421Z,98780.88
2023-03-08T02:16:49.246Z,98775.00
2023-03-08T02:19:24.370Z,98769.09
2023-03-08T02:21:53.286Z,98765.34
2023-03-08T02:24:29.545Z,98765.72
2023-03-08T02:27:03.141Z,98753.56
2023-03-08T02:29:32.478Z,98740.50
2023-03-08T02:32:01.884Z,98750.03
2023-03-08T02:34:31.864Z,98741.97
2023-03-08T02:37:00.715Z,98747.34
2023-03-08T02:39:33.439Z,98742.59
2023-03-08T02:42:01.627Z,98733.91
2023-03-08T02:44:30.840Z,98730.88
2023-03-08T02:46:59.672Z,98719.34
2023-03-08T02:49:28.075Z,98716.66
2023-03-08T02:51:57.595Z,98732.47
2023-03-08T02:54:25.517Z,98726.47
2023-03-08T02:56:56.977Z,98733.66
2023-03-08T02:59:26.805Z,98730.81
2023-03-08T03:01:55.092Z,98719.63
2023-03-08T03:04:25.539Z,98695.81
2023-03-08T03:06:58.011Z,98718.06
2023-03-08T03:09:29.508Z,98702.84
2023-03-08T03:12:02.124Z,98711.63
2023-03-08T03:14:31.260Z,98710.28
2023-03-08T03:17:01.970Z,98711.19
2023-03-08T03:19:31.762Z,98713.03
2023-03-08T03:21:59.583Z,98718.97
2023-03-08T03:24:28.079Z,98706.34
2023-03-08T03:26:59.723Z,98694.41
2023-03-08T03:29:33.100Z,98706.13
2023-03-08T03:32:08.701Z,98711.38
2023-03-08T03:34:37.653Z,98710.25
2023-03-08T03:37:06.159Z,98698.22
2023-03-08T03:39:39.016Z,98700.69
2023-03-08T03:42:11.651Z,98701.47
2023-03-08T03:44:42.406Z,98697.16
2023-03-08T03:47:12.218Z,98701.63
2023-03-08T03:49:43.713Z,98710.75
2023-03-08T03:52:20.828Z,98708.06
2023-03-08T03:54:54.640Z,98700.22
2023-03-08T03:57:35.161Z,98695.00
2023-03-08T04:00:06.193Z,98695.00
2023-03-08T04:02:38.342Z,98697.75
2023-03-08T04:05:10.064Z,98697.59
2023-03-08T04:07:39.180Z,98668.81
2023-03-08T04:10:08.167Z,98690.13
2023-03-08T04:12:36.163Z,98684.66
2023-03-08T04:15:11.672Z,98680.66
2023-03-08T04:17:39.959Z,98683.38
2023-03-08T04:20:10.444Z,98674.94
2023-03-08T04:22:44.389Z,98679.00
2023-03-08T04:25:12.746Z,98672.53
2023-03-08T04:27:45.641Z,98669.31
2023-03-08T04:30:16.779Z,98667.03
2023-03-08T04:32:48.774Z,98661.75
2023-03-08T04:35:30.374Z,98672.97
2023-03-08T04:37:59.061Z,98666.19
2023-03-08T04:40:27.330Z,98658.06
2023-03-08T04:42:55.544Z,98653.53
2023-03-08T04:45:26.345Z,98658.28
2023-03-08T04:47:55.966Z,98640.59
2023-03-08T04:50:25.405Z,98654.00
2023-03-08T04:52:53.260Z,98648.09
2023-03-08T04:55:28.630Z,98637.50
2023-03-08T04:57:57.482Z,98616.19
2023-03-08T05:00:30.240Z,98641.72
2023-03-08T05:02:59.598Z,98642.41
2023-03-08T05:05:27.554Z,98634.72
2023-03-08T05:07:55.538Z,98625.97
2023-03-08T05:10:23.720Z,98615.38
2023-03-08T05:12:51.628Z,98617.03
2023-03-08T05:15:22.157Z,98625.94
2023-03-08T05:17:54.017Z,98617.06
2023-03-08T05:20:24.511Z,98617.69
2023-03-08T05:22:59.288Z,98602.56
2023-03-08T05:25:31.755Z,98603.31
2023-03-08T05:28:01.158Z,98602.94
2023-03-08T05:30:30.242Z,98583.09
2023-03-08T05:33:07.248Z,98596.81
2023-03-08T05:35:37.976Z,98584.19
2023-03-08T05:38:09.458Z,98600.41
2023-03-08T05:40:39.291Z,98588.22
2023-03-08T05:43:08.936Z,98579.56
2023-03-08T05:45:37.109Z,98564.78
2023-03-08T05:48:12.798Z,98573.97
2023-03-08T05:50:40.863Z,98565.75
2023-03-08T05:53:09.979Z,98560.38
2023-03-08T05:56:13.372Z,98565.53
2023-03-08T05:58:45.624Z,98556.03
2023-03-08T06:01:19.424Z,98575.69
2023-03-08T06:03:51.484Z,98558.75
2023-03-08T06:06:21.216Z,98581.41
2023-03-08T06:08:56.224Z,98573.44
2023-03-08T06:11:34.397Z,98580.13
2023-03-08T06:14:03.747Z,98573.25
2023-03-08T06:16:34.410Z,98588.41
2023-03-08T06:19:07.282Z,98586.56
2023-03-08T06:21:37.313Z,98598.94
2023-03-08T06:24:06.519Z,98579.56
2023-03-08T06:26:35.913Z,98566.75
2023-03-08T06:29:13.443Z,98555.72
2023-03-08T06:31:43.947Z,98573.00
2023-03-08T06:34:16.706Z,98575.69
2023-03-08T06:36:46.788Z,98583.53
2023-03-08T06:39:16.348Z,98570.56
2023-03-08T06:41:47.316Z,98569.16
2023-03-08T06:44:16.817Z,98581.34
2023-03-08T06:46:45.151Z,98567.59
2023-03-08T06:49:20.987Z,98565.91
2023-03-08T06:51:49.342Z,98567.09
2023-03-08T06:54:24.084Z,98556.22
2023-03-08T06:56:54.817Z,98526.22
2023-03-08T06:59:28.445Z,98541.28
2023-03-08T07:01:57.581Z,98526.91
2023-03-08T07:04:28.435Z,98532.41
2023-03-08T07:06:57.550Z,98516.47
2023-03-08T07:09:27.999Z,98481.06
2023-03-08T07:11:59.210Z,98532.03
2023-03-08T07:14:27.577Z,98494.25
2023-03-08T07:16:55.676Z,98497.03
2023-03-08T07:19:28.197Z,98539.28
2023-03-08T07:21:59.405Z,98525.34
2023-03-08T07:24:29.026Z,98506.91
2023-03-08T07:26:56.807Z,98488.00
2023-03-08T07:29:27.870Z,98514.84
2023-03-08T07:31:59.942Z,98507.59
2023-03-08T07:34:30.451Z,98500.03
2023-03-08T07:37:01.112Z,98503.84
2023-03-08T07:39:31.711Z,98477.88
2023-03-08T07:42:01.416Z,98469.50
2023-03-08T07:44:29.687Z,98425.00
2023-03-08T07:46:58.293Z,98480.09
2023-03-08T07:49:27.448Z,98464.47
2023-03-08T07:52:01.093Z,98433.63
2023-03-08T07:54:30.091Z,98440.78
2023-03-08T07:57:01.522Z,98418.25
2023-03-08T07:59:29.959Z,98440.78
2023-03-08T08:02:01.474Z,98427.16
2023-03-08T08:04:31.414Z,98428.78
2023-03-08T08:07:05.153Z,98416.59
2023-03-08T08:09:34.211Z,98417.88
2023-03-08T08:12:02.491Z,98396.41
2023-03-08T08:14:36.672Z,98409.28
2023-03-08T08:17:05.629Z,98389.03
2023-03-08T08:19:35.712Z,98417.44
2023-03-08T08:22:08.568Z,98407.09
2023-03-08T08:24:37.469Z,98390.75
2023-03-08T08:27:09.189Z,98370.34
2023-03-08T08:29:39.433Z,98371.53
2023-03-08T08:32:11.130Z,98372.13
2023-03-08T08:34:39.966Z,98336.34
2023-03-08T08:37:13.230Z,98359.91
2023-03-08T08:39:51.447Z,98361.09
2023-03-08T08:42:19.536Z,98369.53
2023-03-08T08:44:51.324Z,98366.63
2023-03-08T08:47:21.290Z,98357.44
2023-03-08T08:49:55.952Z,98354.97
2023-03-08T08:52:29.900Z,98319.28
2023-03-08T08:55:00.657Z,98342.75
2023-03-08T08:57:34.248Z,98347.03
2023-03-08T09:00:12.264Z,98317.31
2023-03-08T09:02:43.928Z,98311.06
2023-03-08T09:05:12.268Z,98324.22
2023-03-08T09:07:43.732Z,98329.16
2023-03-08T09:10:14.309Z,98313.59
2023-03-08T09:12:50.758Z,98293.03
2023-03-08T09:15:21.896Z,98304.41
2023-03-08T09:17:51.732Z,98293.72
2023-03-08T09:20:23.805Z,98275.69
2023-03-08T09:22:55.906Z,98284.00
2023-03-08T09:25:27.220Z,98290.22
2023-03-08T09:27:55.428Z,98292.91
2023-03-08T09:30:24.816Z,98289.72
2023-03-08T09:32:53.352Z,98294.41
2023-03-08T09:35:21.950Z,98290.22
2023-03-08T09:37:51.191Z,98286.88
2023-03-08T09:40:33.723Z,98286.44
2023-03-08T09:43:08.722Z,98291.13
2023-03-08T09:45:38.886Z,98291.34
2023-03-08T09:48:19.177Z,98262.66
2023-03-08T09:50:52.842Z,98276.81
2023-03-08T09:53:30.119Z,98245.03
2023-03-08T09:56:07.194Z,98283.22
2023-03-08T09:58:43.834Z,98220.16
2023-03-08T10:01:25.864Z,98254.03
2023-03-08T10:04:38.499Z,98234.72
2023-03-08T10:07:35.133Z,98263.28
2023-03-08T10:10:31.400Z,98250.31
2023-03-08T10:13:32.153Z,98239.44
2023-03-08T10:16:14.503Z,98240.25
2023-03-08T10:18:48.102Z,98239.25
2023-03-08T10:21:24.990Z,98216.38
2023-03-08T10:24:08.056Z,98219.94
2023-03-08T10:26:37.800Z,98215.81
2023-03-08T10:31:52.329Z,98219.59
2023-03-08T10:34:32.619Z,98218.03
2023-03-08T10:37:08.252Z,98207.94
2023-03-08T10:39:37.212Z,98199.34
2023-03-08T10:42:16.958Z,98198.63
2023-03-08T10:44:53.283Z,98200.88
2023-03-08T10:47:26.909Z,98199.06
2023-03-08T10:50:18.547Z,98189.53
2023-03-08T10:52:55.831Z,98179.41
2023-03-08T10:55:28.162Z,98183.13
2023-03-08T10:57:59.632Z,98178.63
2023-03-08T11:00:35.704Z,98152.59
2023-03-08T11:03:16.089Z,98144.53
2023-03-08T11:05:54.105Z,98150.63
2023-03-08T11:08:25.391Z,98142.75
2023-03-08T11:11:14.305Z,98151.03
2023-03-08T11:13:49.091Z,98144.03
2023-03-08T11:16:31.415Z,98143.47
2023-03-08T11:19:08.238Z,98145.09
2023-03-08T11:21:55.926Z,98141.84
2023-03-08T11:24:40.195Z,98137.53
2023-03-08T11:27:24.592Z,98143.47
2023-03-08T11:30:07.898Z,98139.16
2023-03-08T11:33:00.842Z,98142.91
2023-03-08T11:35:48.096Z,98144.09
2023-03-08T11:38:19.809Z,98110.09
2023-03-08T11:40:57.825Z,98126.69
2023-03-08T11:43:46.624Z,98122.47
2023-03-08T11:46:29.551Z,98127.16
2023-03-08T11:49:18.900Z,98117.59
2023-03-08T11:52:03.969Z,98110.31
2023-03-08T11:54:45.078Z,98119.31
2023-03-08T11:57:16.165Z,98115.31
2023-03-08T11:59:51.433Z,98102.38
2023-03-08T12:02:26.495Z,98099.91
2023-03-08T12:05:03.100Z,98101.88
2023-03-08T12:07:41.436Z,98097.00
2023-03-08T12:10:20.547Z,98078.50
2023-03-08T12:12:57.615Z,98078.63
2023-03-08T12:15:36.424Z,98091.91
2023-03-08T12:18:12.335Z,98056.31
2023-03-08T12:20:43.781Z,98093.47
2023-03-08T12:23:30.212Z,98074.81
2023-03-08T12:26:09.972Z,98081.19
2023-03-08T12:28:49.538Z,98086.81
2023-03-08T12:31:28.719Z,98073.41
2023-03-08T12:34:15.033Z,98073.38
2023-03-08T12:36:49.102Z,98064.13
2023-03-08T12:39:37.520Z,98053.72
2023-03-08T12:42:17.495Z,98056.84
2023-03-08T12:44:48.163Z,98054.34
2023-03-08T12:47:24.411Z,98044.94
2023-03-08T12:49:58.213Z,98061.19
2023-03-08T12:52:33.364Z,98060.19
2023-03-08T12:55:14.052Z,98045.16
2023-03-08T12:57:50.052Z,98059.41
2023-03-08T13:00:30.597Z,98051.50
2023-03-08T13:03:09.195Z,98023.78
2023-03-08T13:05:42.010Z,98029.84
2023-03-08T13:08:30.018Z,98033.69
2023-03-08T13:11:17.372Z,98027.31
2023-03-08T13:13:52.483Z,98028.09
2023-03-08T13:16:42.772Z,98036.31
2023-03-08T13:19:20.721Z,98041.34
2023-03-08T13:21:53.342Z,98039.19
2023-03-08T13:24:40.179Z,98033.94
2023-03-08T13:27:33.918Z,98043.47
2023-03-08T13:30:18.217Z,98039.78
2023-03-08T13:32:49.339Z,98028.72
2023-03-08T13:35:20.188Z,98016.38
2023-03-08T13:37:56.772Z,97995.50
2023-03-08T13:40:25.591Z,98024.78
2023-03-08T13:42:56.802Z,98037.75
2023-03-08T13:45:27.539Z,98025.91
2023-03-08T13:48:02.499Z,98034.75
2023-03-08T13:50:33.047Z,98041.41
2023-03-08T13:53:07.076Z,98033.19
2023-03-08T13:55:41.520Z,98029.19
2023-03-08T13:58:29.332Z,98035.06
2023-03-08T14:01:04.415Z,98026.19
2023-03-08T14:03:33.872Z,98027.78
2023-03-08T14:06:05.482Z,98030.59
2023-03-08T14:08:41.386Z,98021.66
2023-03-08T14:11:17.732Z,98022.41
2023-03-08T14:13:53.064Z,97985.28
2023-03-08T14:16:28.413Z,98012.16
2023-03-08T14:18:56.643Z,98025.53
2023-03-08T14:21:27.627Z,98010.59
2023-03-08T14:23:57.809Z,98015.91
2023-03-08T14:26:32.028Z,98018.66
2023-03-08T14:32:06.703Z,98007.84
2023-03-08T14:34:40.853Z,98002.13
2023-03-08T14:37:19.660Z,98006.34
2023-03-08T14:39:50.669Z,98000.66
2023-03-08T14:42:23.851Z,97993.16
2023-03-08T14:44:54.421Z,97982.94
2023-03-08T14:47:32.109Z,97980.25
2023-03-08T14:50:04.146Z,97961.66
2023-03-08T14:52:35.769Z,97960.66
2023-03-08T14:55:06.237Z,97936.63
2023-03-08T14:57:35.728Z,97957.81
2023-03-08T15:00:16.329Z,97950.03
2023-03-08T15:02:47.538Z,97939.84
2023-03-08T15:05:28.114Z,97916.28
2023-03-08T15:08:05.936Z,97931.41
2023-03-08T15:10:37.402Z,97916.47
2023-03-08T15:13:09.208Z,97908.94
2023-03-08T15:15:37.443Z,97891.88
2023-03-08T15:18:08.214Z,97908.09
2023-03-08T15:20:46.823Z,97892.69
2023-03-08T15:23:19.514Z,97910.13
2023-03-08T15:25:50.232Z,97907.97
2023-03-08T15:28:20.176Z,97915.53
2023-03-08T15:30:52.719Z,97911.47
2023-03-08T15:33:23.925Z,97907.22
2023-03-08T15:35:54.077Z,97917.25
2023-03-08T15:38:24.346Z,97895.38
2023-03-08T15:40:52.852Z,97900.91
2023-03-08T15:43:21.198Z,97897.63
2023-03-08T15:45:53.010Z,97863.38
2023-03-08T15:48:24.713Z,97892.00
2023-03-08T15:50:53.604Z,97893.13
2023-03-08T15:53:34.857Z,97887.31
2023-03-08T15:56:05.468Z,97894.75
2023-03-08T15:58:35.472Z,97897.44
2023-03-08T16:01:04.086Z,97892.25
2023-03-08T16:03:37.642Z,97905.97
2023-03-08T16:06:15.423Z,97907.38
2023-03-08T16:08:51.742Z,97911.75
2023-03-08T16:11:22.520Z,97899.34
2023-03-08T16:13:52.054Z,97907.81
2023-03-08T16:16:32.297Z,97903.97
2023-03-08T16:19:11.015Z,97899.47
2023-03-08T16:21:41.585Z,97884.03
2023-03-08T16:24:11.477Z,97887.28
2023-03-08T16:26:41.651Z,97873.19
2023-03-08T16:29:12.373Z,97884.03
2023-03-08T16:31:40.270Z,97865.28
2023-03-08T16:34:12.975Z,97879.56
2023-03-08T16:36:41.654Z,97870.94
2023-03-08T16:39:10.553Z,97875.16
2023-03-08T16:41:40.537Z,97860.25
2023-03-08T16:44:23.220Z,97887.06
2023-03-08T16:46:53.826Z,97881.59
2023-03-08T16:49:28.618Z,97884.97
2023-03-08T16:51:57.258Z,97896.66
2023-03-08T16:54:30.310Z,97913.34
2023-03-08T16:57:04.834Z,97890.25
2023-03-08T16:59:42.366Z,97879.31
2023-03-08T17:02:16.015Z,97904.75
2023-03-08T17:04:46.946Z,97907.75
2023-03-08T17:07:18.319Z,97897.69
2023-03-08T17:09:47.221Z,97889.69
2023-03-08T17:12:16.107Z,97901.50
2023-03-08T17:14:45.734Z,97886.00
2023-03-08T17:17:17.372Z,97903.28
2023-03-08T17:19:48.944Z,97888.84
2023-03-08T17:22:18.012Z,97921.31
2023-03-08T17:24:46.066Z,97937.50
2023-03-08T17:27:17.059Z,97882.53
2023-03-08T17:29:46.163Z,97910.78
2023-03-08T17:32:16.623Z,97914.03
2023-03-08T17:37:43.052Z,97924.94
2023-03-08T17:40:14.655Z,97888.22
2023-03-08T17:42:43.441Z,97925.75
2023-03-08T17:45:33.852Z,97917.81
2023-03-08T17:48:19.006Z,97929.47
2023-03-08T17:50:50.651Z,97882.91
2023-03-08T17:53:24.468Z,97870.63
2023-03-08T17:55:53.303Z,97879.22
2023-03-08T17:58:21.464Z,97871.50
2023-03-08T18:00:52.169Z,97895.41
2023-03-08T18:03:21.789Z,97895.28
2023-03-08T18:05:53.539Z,97860.47
2023-03-08T18:08:31.010Z,97866.63
2023-03-08T18:10:59.586Z,97898.66
2023-03-08T18:13:31.173Z,97887.25
2023-03-08T18:16:14.378Z,97894.19
2023-03-08T18:18:58.732Z,97838.97
2023-03-08T18:21:39.982Z,97844.47
2023-03-08T18:27:31.263Z,97896.28
2023-03-08T18:30:07.900Z,97884.09
2023-03-08T18:39:10.027Z,97907.25
2023-03-08T18:42:33.764Z,97894.16
2023-03-08T18:49:14.469Z,97918.78
2023-03-08T19:00:55.078Z,97928.81
2023-03-08T19:03:38.336Z,97926.13
2023-03-08T19:12:37.580Z,97927.28
2023-03-08T19:15:26.616Z,97933.38
2023-03-08T19:29:44.326Z,97933.97
2023-03-08T19:39:06.477Z,97920.41
2023-03-08T20:03:00.296Z,97913.84
2023-03-08T21:18:08.882Z,97886.47
2023-03-08T22:16:17.947Z,97817.88
2023-03-08T22:18:58.597Z,97816.66
2023-03-08T22:21:32.746Z,97798.97
2023-03-08T22:24:06.880Z,97790.88
2023-03-08T22:26:49.202Z,97796.59
2023-03-08T22:29:24.002Z,97802.25
2023-03-08T22:32:17.085Z,97782.22
2023-03-08T22:35:24.254Z,97789.53
2023-03-08T22:40:47.840Z,97804.47
2023-03-08T22:54:54.661Z,97795.31
2023-03-08T23:06:51.361Z,97747.41
2023-03-08T23:09:44.230Z,97740.81
2023-03-08T23:13:06.438Z,97738.22
2023-03-08T23:19:12.277Z,97734.66
2023-03-08T23:33:26.063Z,97712.72
2023-03-08T23:45:37.085Z,97680.41
2023-03-08T23:48:11.005Z,97673.81
2023-03-08T23:50:40.193Z,97667.41
2023-03-08T23:53:14.590Z,97674.66
2023-03-08T23:55:45.371Z,97673.59
2023-03-08T23:58:19.083Z,97661.38
